sensor_id;sensor_type;location;lat;lon;timestamp;temperature;humidity
77865;DHT22;67061;48.524;9.040;2024-01-30T00:01:49;-1.80;99.90
77865;DHT22;67061;48.524;9.040;2024-01-30T00:04:16;-1.80;99.90
77865;DHT22;67061;48.524;9.040;2024-01-30T00:06:43;-1.80;99.90
77865;DHT22;67061;48.524;9.040;2024-01-30T00:09:12;-1.80;99.90
77865;DHT22;67061;48.524;9.040;2024-01-30T00:11:39;-1.90;99.90
77865;DHT22;67061;48.524;9.040;2024-01-30T00:14:06;-1.90;99.90
77865;DHT22;67061;48.524;9.040;2024-01-30T00:16:33;-1.80;99.90
77865;DHT22;67061;48.524;9.040;2024-01-30T00:19:00;-1.80;99.90
77865;DHT22;67061;48.524;9.040;2024-01-30T00:21:28;-1.80;99.90
77865;DHT22;67061;48.524;9.040;2024-01-30T00:23:54;-1.80;99.90
77865;DHT22;67061;48.524;9.040;2024-01-30T00:26:23;-1.80;99.90
77865;DHT22;67061;48.524;9.040;2024-01-30T00:28:50;-1.80;99.90
77865;DHT22;67061;48.524;9.040;2024-01-30T00:31:17;-1.80;99.90
77865;DHT22;67061;48.524;9.040;2024-01-30T00:33:43;-1.80;99.90
77865;DHT22;67061;48.524;9.040;2024-01-30T00:36:10;-1.90;99.90
77865;DHT22;67061;48.524;9.040;2024-01-30T00:38:37;-1.90;99.90
77865;DHT22;67061;48.524;9.040;2024-01-30T00:41:07;-1.90;99.90
77865;DHT22;67061;48.524;9.040;2024-01-30T00:43:35;-1.90;99.90
77865;DHT22;67061;48.524;9.040;2024-01-30T00:46:02;-1.90;99.90
77865;DHT22;67061;48.524;9.040;2024-01-30T00:48:29;-1.90;99.90
77865;DHT22;67061;48.524;9.040;2024-01-30T00:50:56;-1.90;99.90
77865;DHT22;67061;48.524;9.040;2024-01-30T00:53:23;-1.90;99.90
77865;DHT22;67061;48.524;9.040;2024-01-30T00:55:50;-1.90;99.90
77865;DHT22;67061;48.524;9.040;2024-01-30T00:58:17;-1.90;99.90
77865;DHT22;67061;48.524;9.040;2024-01-30T01:00:46;-1.90;99.90
77865;DHT22;67061;48.524;9.040;2024-01-30T01:03:13;-1.90;99.90
77865;DHT22;67061;48.524;9.040;2024-01-30T01:05:40;-1.90;99.90
77865;DHT22;67061;48.524;9.040;2024-01-30T01:08:07;-1.90;99.90
77865;DHT22;67061;48.524;9.040;2024-01-30T01:10:34;-1.90;99.90
77865;DHT22;67061;48.524;9.040;2024-01-30T01:13:01;-1.90;99.90
77865;DHT22;67061;48.524;9.040;2024-01-30T01:15:28;-2.00;99.90
77865;DHT22;67061;48.524;9.040;2024-01-30T01:17:56;-2.10;99.90
77865;DHT22;67061;48.524;9.040;2024-01-30T01:20:23;-2.10;99.90
77865;DHT22;67061;48.524;9.040;2024-01-30T01:22:50;-2.10;99.90
77865;DHT22;67061;48.524;9.040;2024-01-30T01:25:18;-2.10;99.90
77865;DHT22;67061;48.524;9.040;2024-01-30T01:27:45;-2.10;99.90
77865;DHT22;67061;48.524;9.040;2024-01-30T01:30:17;-2.00;99.90
77865;DHT22;67061;48.524;9.040;2024-01-30T01:32:48;-2.10;99.90
77865;DHT22;67061;48.524;9.040;2024-01-30T01:35:22;-2.10;99.90
77865;DHT22;67061;48.524;9.040;2024-01-30T01:37:50;-2.10;99.90
77865;DHT22;67061;48.524;9.040;2024-01-30T01:40:21;-2.10;99.90
77865;DHT22;67061;48.524;9.040;2024-01-30T01:42:49;-2.10;99.90
77865;DHT22;67061;48.524;9.040;2024-01-30T01:45:17;-2.10;99.90
77865;DHT22;67061;48.524;9.040;2024-01-30T01:47:46;-2.10;99.90
77865;DHT22;67061;48.524;9.040;2024-01-30T01:50:14;-2.10;99.90
77865;DHT22;67061;48.524;9.040;2024-01-30T01:52:47;-2.10;99.90
77865;DHT22;67061;48.524;9.040;2024-01-30T01:55:15;-2.10;99.90
77865;DHT22;67061;48.524;9.040;2024-01-30T01:57:43;-2.10;99.90
77865;DHT22;67061;48.524;9.040;2024-01-30T02:00:12;-2.10;99.90
77865;DHT22;67061;48.524;9.040;2024-01-30T02:02:39;-2.10;99.90
77865;DHT22;67061;48.524;9.040;2024-01-30T02:05:07;-2.10;99.90
77865;DHT22;67061;48.524;9.040;2024-01-30T02:07:34;-2.10;99.90
77865;DHT22;67061;48.524;9.040;2024-01-30T02:10:03;-2.10;99.90
77865;DHT22;67061;48.524;9.040;2024-01-30T02:12:30;-2.10;99.90
77865;DHT22;67061;48.524;9.040;2024-01-30T02:14:57;-2.10;99.90
77865;DHT22;67061;48.524;9.040;2024-01-30T02:17:24;-2.10;99.90
77865;DHT22;67061;48.524;9.040;2024-01-30T02:19:51;-2.10;99.90
77865;DHT22;67061;48.524;9.040;2024-01-30T02:22:20;-2.20;99.90
77865;DHT22;67061;48.524;9.040;2024-01-30T02:24:48;-2.20;99.90
77865;DHT22;67061;48.524;9.040;2024-01-30T02:27:15;-2.30;99.90
77865;DHT22;67061;48.524;9.040;2024-01-30T02:29:41;-2.20;99.90
77865;DHT22;67061;48.524;9.040;2024-01-30T02:32:08;-2.20;99.90
77865;DHT22;67061;48.524;9.040;2024-01-30T02:34:35;-2.20;99.90
77865;DHT22;67061;48.524;9.040;2024-01-30T02:37:02;-2.30;99.90
77865;DHT22;67061;48.524;9.040;2024-01-30T02:39:31;-2.30;99.90
77865;DHT22;67061;48.524;9.040;2024-01-30T02:41:57;-2.40;99.90
77865;DHT22;67061;48.524;9.040;2024-01-30T02:44:24;-2.40;99.90
77865;DHT22;67061;48.524;9.040;2024-01-30T02:46:51;-2.50;99.90
77865;DHT22;67061;48.524;9.040;2024-01-30T02:49:19;-2.50;99.90
77865;DHT22;67061;48.524;9.040;2024-01-30T02:51:46;-2.50;99.90
77865;DHT22;67061;48.524;9.040;2024-01-30T02:54:13;-2.50;99.90
77865;DHT22;67061;48.524;9.040;2024-01-30T02:56:41;-2.50;99.90
77865;DHT22;67061;48.524;9.040;2024-01-30T02:59:08;-2.50;99.90
77865;DHT22;67061;48.524;9.040;2024-01-30T03:01:42;-2.50;99.90
77865;DHT22;67061;48.524;9.040;2024-01-30T03:04:09;-2.50;99.90
77865;DHT22;67061;48.524;9.040;2024-01-30T03:06:36;-2.50;99.90
77865;DHT22;67061;48.524;9.040;2024-01-30T03:09:03;-2.50;99.90
77865;DHT22;67061;48.524;9.040;2024-01-30T03:11:30;-2.50;99.90
77865;DHT22;67061;48.524;9.040;2024-01-30T03:13:59;-2.50;99.90
77865;DHT22;67061;48.524;9.040;2024-01-30T03:16:25;-2.50;99.90
77865;DHT22;67061;48.524;9.040;2024-01-30T03:18:52;-2.60;99.90
77865;DHT22;67061;48.524;9.040;2024-01-30T03:21:19;-2.60;99.90
77865;DHT22;67061;48.524;9.040;2024-01-30T03:23:47;-2.50;99.90
77865;DHT22;67061;48.524;9.040;2024-01-30T03:26:14;-2.60;99.90
77865;DHT22;67061;48.524;9.040;2024-01-30T03:28:41;-2.60;99.90
77865;DHT22;67061;48.524;9.040;2024-01-30T03:31:09;-2.70;99.90
77865;DHT22;67061;48.524;9.040;2024-01-30T03:33:36;-2.70;99.90
77865;DHT22;67061;48.524;9.040;2024-01-30T03:36:05;-2.70;99.90
77865;DHT22;67061;48.524;9.040;2024-01-30T03:38:32;-2.70;99.90
77865;DHT22;67061;48.524;9.040;2024-01-30T03:40:59;-2.70;99.90
77865;DHT22;67061;48.524;9.040;2024-01-30T03:43:26;-2.70;99.90
77865;DHT22;67061;48.524;9.040;2024-01-30T03:45:53;-2.70;99.90
77865;DHT22;67061;48.524;9.040;2024-01-30T03:48:21;-2.70;99.90
77865;DHT22;67061;48.524;9.040;2024-01-30T03:50:48;-2.70;99.90
77865;DHT22;67061;48.524;9.040;2024-01-30T03:53:15;-2.80;99.90
77865;DHT22;67061;48.524;9.040;2024-01-30T03:55:42;-2.80;99.90
77865;DHT22;67061;48.524;9.040;2024-01-30T03:58:09;-2.80;99.90
77865;DHT22;67061;48.524;9.040;2024-01-30T04:00:36;-2.80;99.90
77865;DHT22;67061;48.524;9.040;2024-01-30T04:03:03;-2.90;99.90
77865;DHT22;67061;48.524;9.040;2024-01-30T04:05:31;-2.90;99.90
77865;DHT22;67061;48.524;9.040;2024-01-30T04:07:58;-2.90;99.90
77865;DHT22;67061;48.524;9.040;2024-01-30T04:10:25;-2.90;99.90
77865;DHT22;67061;48.524;9.040;2024-01-30T04:12:52;-2.90;99.90
77865;DHT22;67061;48.524;9.040;2024-01-30T04:15:20;-2.80;99.90
77865;DHT22;67061;48.524;9.040;2024-01-30T04:17:47;-2.80;99.90
77865;DHT22;67061;48.524;9.040;2024-01-30T04:20:14;-2.80;99.90
77865;DHT22;67061;48.524;9.040;2024-01-30T04:22:44;-2.80;99.90
77865;DHT22;67061;48.524;9.040;2024-01-30T04:25:11;-2.80;99.90
77865;DHT22;67061;48.524;9.040;2024-01-30T04:27:38;-2.80;99.90
77865;DHT22;67061;48.524;9.040;2024-01-30T04:30:06;-2.80;99.90
77865;DHT22;67061;48.524;9.040;2024-01-30T04:32:33;-2.70;99.90
77865;DHT22;67061;48.524;9.040;2024-01-30T04:35:00;-2.80;99.90
77865;DHT22;67061;48.524;9.040;2024-01-30T04:37:26;-2.80;99.90
77865;DHT22;67061;48.524;9.040;2024-01-30T04:39:55;-2.80;99.90
77865;DHT22;67061;48.524;9.040;2024-01-30T04:42:22;-2.80;99.90
77865;DHT22;67061;48.524;9.040;2024-01-30T04:44:49;-2.80;99.90
77865;DHT22;67061;48.524;9.040;2024-01-30T04:47:16;-2.80;99.90
77865;DHT22;67061;48.524;9.040;2024-01-30T04:49:43;-2.80;99.90
77865;DHT22;67061;48.524;9.040;2024-01-30T04:52:10;-2.80;99.90
77865;DHT22;67061;48.524;9.040;2024-01-30T04:54:37;-2.80;99.90
77865;DHT22;67061;48.524;9.040;2024-01-30T04:57:05;-2.90;99.90
77865;DHT22;67061;48.524;9.040;2024-01-30T04:59:35;-2.90;99.90
77865;DHT22;67061;48.524;9.040;2024-01-30T05:02:02;-3.00;99.90
77865;DHT22;67061;48.524;9.040;2024-01-30T05:04:29;-3.00;99.90
77865;DHT22;67061;48.524;9.040;2024-01-30T05:06:56;-3.00;99.90
77865;DHT22;67061;48.524;9.040;2024-01-30T05:09:23;-3.00;99.90
77865;DHT22;67061;48.524;9.040;2024-01-30T05:11:49;-3.00;99.90
77865;DHT22;67061;48.524;9.040;2024-01-30T05:14:19;-3.00;99.90
77865;DHT22;67061;48.524;9.040;2024-01-30T05:16:45;-3.00;99.90
77865;DHT22;67061;48.524;9.040;2024-01-30T05:19:13;-3.00;99.90
77865;DHT22;67061;48.524;9.040;2024-01-30T05:21:41;-3.10;99.90
77865;DHT22;67061;48.524;9.040;2024-01-30T05:24:08;-3.10;99.90
77865;DHT22;67061;48.524;9.040;2024-01-30T05:26:35;-3.10;99.90
77865;DHT22;67061;48.524;9.040;2024-01-30T05:29:03;-3.10;99.90
77865;DHT22;67061;48.524;9.040;2024-01-30T05:31:31;-3.10;99.90
77865;DHT22;67061;48.524;9.040;2024-01-30T05:33:58;-3.10;99.90
77865;DHT22;67061;48.524;9.040;2024-01-30T05:36:25;-3.10;99.90
77865;DHT22;67061;48.524;9.040;2024-01-30T05:38:52;-3.10;99.90
77865;DHT22;67061;48.524;9.040;2024-01-30T05:41:19;-3.20;99.90
77865;DHT22;67061;48.524;9.040;2024-01-30T05:43:46;-3.20;99.90
77865;DHT22;67061;48.524;9.040;2024-01-30T05:46:13;-3.20;99.90
77865;DHT22;67061;48.524;9.040;2024-01-30T05:48:42;-3.10;99.90
77865;DHT22;67061;48.524;9.040;2024-01-30T05:51:08;-3.10;99.90
77865;DHT22;67061;48.524;9.040;2024-01-30T05:53:35;-3.10;99.90
77865;DHT22;67061;48.524;9.040;2024-01-30T05:56:03;-3.20;99.90
77865;DHT22;67061;48.524;9.040;2024-01-30T05:58:30;-3.20;99.90
77865;DHT22;67061;48.524;9.040;2024-01-30T06:00:57;-3.10;99.90
77865;DHT22;67061;48.524;9.040;2024-01-30T06:03:24;-3.10;99.90
77865;DHT22;67061;48.524;9.040;2024-01-30T06:05:52;-3.00;99.90
77865;DHT22;67061;48.524;9.040;2024-01-30T06:08:19;-3.00;99.90
77865;DHT22;67061;48.524;9.040;2024-01-30T06:10:46;-3.00;99.90
77865;DHT22;67061;48.524;9.040;2024-01-30T06:13:13;-3.10;99.90
77865;DHT22;67061;48.524;9.040;2024-01-30T06:15:40;-3.20;99.90
77865;DHT22;67061;48.524;9.040;2024-01-30T06:18:07;-3.20;99.90
77865;DHT22;67061;48.524;9.040;2024-01-30T06:20:34;-3.20;99.90
77865;DHT22;67061;48.524;9.040;2024-01-30T06:23:03;-3.20;99.90
77865;DHT22;67061;48.524;9.040;2024-01-30T06:25:30;-3.10;99.90
77865;DHT22;67061;48.524;9.040;2024-01-30T06:27:57;-3.10;99.90
77865;DHT22;67061;48.524;9.040;2024-01-30T06:30:23;-3.10;99.90
77865;DHT22;67061;48.524;9.040;2024-01-30T06:32:50;-3.20;99.90
77865;DHT22;67061;48.524;9.040;2024-01-30T06:35:17;-3.20;99.90
77865;DHT22;67061;48.524;9.040;2024-01-30T06:37:44;-3.20;99.90
77865;DHT22;67061;48.524;9.040;2024-01-30T06:40:13;-3.20;99.90
77865;DHT22;67061;48.524;9.040;2024-01-30T06:42:40;-3.20;99.90
77865;DHT22;67061;48.524;9.040;2024-01-30T06:45:07;-3.30;99.90
77865;DHT22;67061;48.524;9.040;2024-01-30T06:47:34;-3.30;99.90
77865;DHT22;67061;48.524;9.040;2024-01-30T06:50:01;-3.30;99.90
77865;DHT22;67061;48.524;9.040;2024-01-30T06:52:29;-3.30;99.90
77865;DHT22;67061;48.524;9.040;2024-01-30T06:54:55;-3.30;99.90
77865;DHT22;67061;48.524;9.040;2024-01-30T06:57:24;-3.20;99.90
77865;DHT22;67061;48.524;9.040;2024-01-30T06:59:56;-3.20;99.90
77865;DHT22;67061;48.524;9.040;2024-01-30T07:02:23;-3.20;99.90
77865;DHT22;67061;48.524;9.040;2024-01-30T07:04:50;-3.20;99.90
77865;DHT22;67061;48.524;9.040;2024-01-30T07:07:17;-3.20;99.90
77865;DHT22;67061;48.524;9.040;2024-01-30T07:09:44;-3.20;99.90
77865;DHT22;67061;48.524;9.040;2024-01-30T07:12:13;-3.10;99.90
77865;DHT22;67061;48.524;9.040;2024-01-30T07:14:41;-3.20;99.90
77865;DHT22;67061;48.524;9.040;2024-01-30T07:17:08;-3.20;99.90
77865;DHT22;67061;48.524;9.040;2024-01-30T07:19:35;-3.10;99.90
77865;DHT22;67061;48.524;9.040;2024-01-30T07:22:02;-3.10;99.90
77865;DHT22;67061;48.524;9.040;2024-01-30T07:24:29;-3.00;99.90
77865;DHT22;67061;48.524;9.040;2024-01-30T07:26:55;-3.10;99.90
77865;DHT22;67061;48.524;9.040;2024-01-30T07:29:22;-3.00;99.90
77865;DHT22;67061;48.524;9.040;2024-01-30T07:31:50;-2.90;99.90
77865;DHT22;67061;48.524;9.040;2024-01-30T07:34:17;-2.90;99.90
77865;DHT22;67061;48.524;9.040;2024-01-30T07:36:44;-2.80;99.90
77865;DHT22;67061;48.524;9.040;2024-01-30T07:39:12;-2.80;99.90
77865;DHT22;67061;48.524;9.040;2024-01-30T07:41:39;-2.80;99.90
77865;DHT22;67061;48.524;9.040;2024-01-30T07:44:06;-2.80;99.90
77865;DHT22;67061;48.524;9.040;2024-01-30T07:46:33;-2.70;99.90
77865;DHT22;67061;48.524;9.040;2024-01-30T07:49:01;-2.70;99.90
77865;DHT22;67061;48.524;9.040;2024-01-30T07:51:28;-2.60;99.90
77865;DHT22;67061;48.524;9.040;2024-01-30T07:53:57;-2.50;99.90
77865;DHT22;67061;48.524;9.040;2024-01-30T07:56:24;-2.40;99.90
77865;DHT22;67061;48.524;9.040;2024-01-30T07:58:51;-2.30;99.90
77865;DHT22;67061;48.524;9.040;2024-01-30T08:01:18;-2.20;99.90
77865;DHT22;67061;48.524;9.040;2024-01-30T08:03:45;-2.10;99.90
77865;DHT22;67061;48.524;9.040;2024-01-30T08:06:14;-2.10;99.90
77865;DHT22;67061;48.524;9.040;2024-01-30T08:08:41;-1.90;99.90
77865;DHT22;67061;48.524;9.040;2024-01-30T08:11:07;-1.80;99.90
77865;DHT22;67061;48.524;9.040;2024-01-30T08:13:34;-1.80;99.90
77865;DHT22;67061;48.524;9.040;2024-01-30T08:16:01;-1.70;99.90
77865;DHT22;67061;48.524;9.040;2024-01-30T08:18:28;-1.70;99.90
77865;DHT22;67061;48.524;9.040;2024-01-30T08:20:55;-1.60;99.90
77865;DHT22;67061;48.524;9.040;2024-01-30T08:23:23;-1.50;99.90
77865;DHT22;67061;48.524;9.040;2024-01-30T08:25:50;-1.50;99.90
77865;DHT22;67061;48.524;9.040;2024-01-30T08:28:17;-1.50;99.90
77865;DHT22;67061;48.524;9.040;2024-01-30T08:30:44;-1.40;99.90
77865;DHT22;67061;48.524;9.040;2024-01-30T08:33:11;-1.30;99.90
77865;DHT22;67061;48.524;9.040;2024-01-30T08:35:37;-1.30;99.90
77865;DHT22;67061;48.524;9.040;2024-01-30T08:38:04;-1.20;99.90
77865;DHT22;67061;48.524;9.040;2024-01-30T08:40:32;-1.10;99.90
77865;DHT22;67061;48.524;9.040;2024-01-30T08:43:00;-1.10;99.90
77865;DHT22;67061;48.524;9.040;2024-01-30T08:45:28;-1.00;99.90
77865;DHT22;67061;48.524;9.040;2024-01-30T08:47:54;-1.00;99.90
77865;DHT22;67061;48.524;9.040;2024-01-30T08:50:21;-0.90;99.90
77865;DHT22;67061;48.524;9.040;2024-01-30T08:52:48;-0.90;99.90
77865;DHT22;67061;48.524;9.040;2024-01-30T08:55:15;-0.90;99.90
77865;DHT22;67061;48.524;9.040;2024-01-30T08:57:44;-0.80;99.90
77865;DHT22;67061;48.524;9.040;2024-01-30T09:00:12;-0.70;99.90
77865;DHT22;67061;48.524;9.040;2024-01-30T09:02:39;-0.70;99.90
77865;DHT22;67061;48.524;9.040;2024-01-30T09:05:06;-0.60;99.90
77865;DHT22;67061;48.524;9.040;2024-01-30T09:07:33;-0.50;99.90
77865;DHT22;67061;48.524;9.040;2024-01-30T09:10:00;-0.50;99.90
77865;DHT22;67061;48.524;9.040;2024-01-30T09:12:27;-0.40;99.90
77865;DHT22;67061;48.524;9.040;2024-01-30T09:14:55;-0.30;99.90
77865;DHT22;67061;48.524;9.040;2024-01-30T09:17:22;-0.10;99.90
77865;DHT22;67061;48.524;9.040;2024-01-30T09:19:49;0.00;99.90
77865;DHT22;67061;48.524;9.040;2024-01-30T09:22:16;0.10;99.90
77865;DHT22;67061;48.524;9.040;2024-01-30T09:24:43;0.30;99.90
77865;DHT22;67061;48.524;9.040;2024-01-30T09:27:10;0.40;99.90
77865;DHT22;67061;48.524;9.040;2024-01-30T09:29:37;0.50;99.90
77865;DHT22;67061;48.524;9.040;2024-01-30T09:32:06;0.60;99.90
77865;DHT22;67061;48.524;9.040;2024-01-30T09:34:34;0.80;99.90
77865;DHT22;67061;48.524;9.040;2024-01-30T09:37:01;0.90;99.90
77865;DHT22;67061;48.524;9.040;2024-01-30T09:39:28;1.00;99.90
77865;DHT22;67061;48.524;9.040;2024-01-30T09:42:01;1.10;99.90
77865;DHT22;67061;48.524;9.040;2024-01-30T09:44:29;1.20;99.90
77865;DHT22;67061;48.524;9.040;2024-01-30T09:46:57;1.20;99.90
77865;DHT22;67061;48.524;9.040;2024-01-30T09:49:32;1.40;99.90
77865;DHT22;67061;48.524;9.040;2024-01-30T09:52:00;1.50;99.90
77865;DHT22;67061;48.524;9.040;2024-01-30T09:54:29;1.60;99.90
77865;DHT22;67061;48.524;9.040;2024-01-30T09:56:56;1.60;99.90
77865;DHT22;67061;48.524;9.040;2024-01-30T09:59:23;1.70;99.90
77865;DHT22;67061;48.524;9.040;2024-01-30T10:01:50;1.80;99.90
77865;DHT22;67061;48.524;9.040;2024-01-30T10:04:17;1.80;99.90
77865;DHT22;67061;48.524;9.040;2024-01-30T10:06:46;1.80;99.90
77865;DHT22;67061;48.524;9.040;2024-01-30T10:09:14;1.70;99.90
77865;DHT22;67061;48.524;9.040;2024-01-30T10:11:41;1.80;99.90
77865;DHT22;67061;48.524;9.040;2024-01-30T10:14:08;1.90;99.90
77865;DHT22;67061;48.524;9.040;2024-01-30T10:16:35;1.90;99.90
77865;DHT22;67061;48.524;9.040;2024-01-30T10:19:02;2.00;99.90
77865;DHT22;67061;48.524;9.040;2024-01-30T10:21:30;2.10;99.90
77865;DHT22;67061;48.524;9.040;2024-01-30T10:23:58;2.20;99.90
77865;DHT22;67061;48.524;9.040;2024-01-30T10:26:25;2.30;99.90
77865;DHT22;67061;48.524;9.040;2024-01-30T10:28:53;2.40;99.90
77865;DHT22;67061;48.524;9.040;2024-01-30T10:31:19;2.50;99.90
77865;DHT22;67061;48.524;9.040;2024-01-30T10:33:46;2.70;99.90
77865;DHT22;67061;48.524;9.040;2024-01-30T10:36:14;2.80;99.90
77865;DHT22;67061;48.524;9.040;2024-01-30T10:38:42;2.90;99.90
77865;DHT22;67061;48.524;9.040;2024-01-30T10:41:15;3.00;99.90
77865;DHT22;67061;48.524;9.040;2024-01-30T10:43:50;3.10;99.90
77865;DHT22;67061;48.524;9.040;2024-01-30T10:46:20;3.10;99.90
77865;DHT22;67061;48.524;9.040;2024-01-30T10:48:56;3.30;99.90
77865;DHT22;67061;48.524;9.040;2024-01-30T10:51:25;3.30;99.90
77865;DHT22;67061;48.524;9.040;2024-01-30T10:53:53;3.40;99.90
77865;DHT22;67061;48.524;9.040;2024-01-30T10:56:22;3.50;99.90
77865;DHT22;67061;48.524;9.040;2024-01-30T10:58:50;3.50;99.90
77865;DHT22;67061;48.524;9.040;2024-01-30T11:01:18;3.60;99.90
77865;DHT22;67061;48.524;9.040;2024-01-30T11:03:45;3.70;99.90
77865;DHT22;67061;48.524;9.040;2024-01-30T11:06:12;3.90;99.90
77865;DHT22;67061;48.524;9.040;2024-01-30T11:08:44;3.90;99.90
77865;DHT22;67061;48.524;9.040;2024-01-30T11:11:11;4.00;99.90
77865;DHT22;67061;48.524;9.040;2024-01-30T11:13:40;4.10;99.90
77865;DHT22;67061;48.524;9.040;2024-01-30T11:16:11;4.30;99.90
77865;DHT22;67061;48.524;9.040;2024-01-30T11:18:38;4.40;99.90
77865;DHT22;67061;48.524;9.040;2024-01-30T11:21:05;4.50;99.90
77865;DHT22;67061;48.524;9.040;2024-01-30T11:23:34;4.50;99.90
77865;DHT22;67061;48.524;9.040;2024-01-30T11:26:01;4.60;99.90
77865;DHT22;67061;48.524;9.040;2024-01-30T11:28:32;4.70;99.90
77865;DHT22;67061;48.524;9.040;2024-01-30T11:31:04;4.80;99.90
77865;DHT22;67061;48.524;9.040;2024-01-30T11:33:32;4.90;99.90
77865;DHT22;67061;48.524;9.040;2024-01-30T11:36:00;5.00;99.90
77865;DHT22;67061;48.524;9.040;2024-01-30T11:38:28;5.00;99.90
77865;DHT22;67061;48.524;9.040;2024-01-30T11:40:56;5.30;99.90
77865;DHT22;67061;48.524;9.040;2024-01-30T11:43:23;5.30;99.90
77865;DHT22;67061;48.524;9.040;2024-01-30T11:45:50;5.50;99.90
77865;DHT22;67061;48.524;9.040;2024-01-30T11:48:18;5.50;99.90
77865;DHT22;67061;48.524;9.040;2024-01-30T11:50:46;5.60;99.90
77865;DHT22;67061;48.524;9.040;2024-01-30T11:53:13;5.70;99.90
77865;DHT22;67061;48.524;9.040;2024-01-30T11:55:40;5.70;99.90
77865;DHT22;67061;48.524;9.040;2024-01-30T11:58:07;5.80;99.50
77865;DHT22;67061;48.524;9.040;2024-01-30T12:00:34;5.90;99.90
77865;DHT22;67061;48.524;9.040;2024-01-30T12:03:01;5.90;99.90
77865;DHT22;67061;48.524;9.040;2024-01-30T12:05:30;6.00;99.70
77865;DHT22;67061;48.524;9.040;2024-01-30T12:07:57;6.10;98.40
77865;DHT22;67061;48.524;9.040;2024-01-30T12:10:25;6.20;98.20
77865;DHT22;67061;48.524;9.040;2024-01-30T12:12:54;6.20;97.80
77865;DHT22;67061;48.524;9.040;2024-01-30T12:15:22;6.30;97.60
77865;DHT22;67061;48.524;9.040;2024-01-30T12:17:49;6.40;95.20
77865;DHT22;67061;48.524;9.040;2024-01-30T12:20:18;6.50;93.20
77865;DHT22;67061;48.524;9.040;2024-01-30T12:22:48;6.60;92.90
77865;DHT22;67061;48.524;9.040;2024-01-30T12:25:17;6.70;93.20
77865;DHT22;67061;48.524;9.040;2024-01-30T12:27:45;6.80;92.90
77865;DHT22;67061;48.524;9.040;2024-01-30T12:30:16;6.80;90.60
77865;DHT22;67061;48.524;9.040;2024-01-30T12:32:43;7.00;90.00
77865;DHT22;67061;48.524;9.040;2024-01-30T12:35:11;7.00;90.10
77865;DHT22;67061;48.524;9.040;2024-01-30T12:37:38;7.20;91.40
77865;DHT22;67061;48.524;9.040;2024-01-30T12:40:08;7.40;90.30
77865;DHT22;67061;48.524;9.040;2024-01-30T12:42:35;7.50;89.20
77865;DHT22;67061;48.524;9.040;2024-01-30T12:45:02;7.60;88.50
77865;DHT22;67061;48.524;9.040;2024-01-30T12:47:30;7.80;89.30
77865;DHT22;67061;48.524;9.040;2024-01-30T12:49:56;8.00;89.30
77865;DHT22;67061;48.524;9.040;2024-01-30T12:52:24;8.00;86.30
77865;DHT22;67061;48.524;9.040;2024-01-30T12:54:51;8.20;86.10
77865;DHT22;67061;48.524;9.040;2024-01-30T12:57:19;8.30;85.70
77865;DHT22;67061;48.524;9.040;2024-01-30T12:59:47;8.50;85.00
77865;DHT22;67061;48.524;9.040;2024-01-30T13:02:15;8.50;84.30
77865;DHT22;67061;48.524;9.040;2024-01-30T13:04:42;8.50;83.90
77865;DHT22;67061;48.524;9.040;2024-01-30T13:07:09;8.40;85.50
77865;DHT22;67061;48.524;9.040;2024-01-30T13:09:35;8.30;84.80
77865;DHT22;67061;48.524;9.040;2024-01-30T13:12:04;8.40;85.10
77865;DHT22;67061;48.524;9.040;2024-01-30T13:14:32;8.30;84.40
77865;DHT22;67061;48.524;9.040;2024-01-30T13:16:59;8.40;84.10
77865;DHT22;67061;48.524;9.040;2024-01-30T13:19:26;8.40;85.00
77865;DHT22;67061;48.524;9.040;2024-01-30T13:21:53;8.40;85.30
77865;DHT22;67061;48.524;9.040;2024-01-30T13:24:19;8.40;84.80
77865;DHT22;67061;48.524;9.040;2024-01-30T13:26:47;8.40;84.90
77865;DHT22;67061;48.524;9.040;2024-01-30T13:29:14;8.60;85.80
77865;DHT22;67061;48.524;9.040;2024-01-30T13:31:43;8.80;85.30
77865;DHT22;67061;48.524;9.040;2024-01-30T13:34:12;9.00;83.40
77865;DHT22;67061;48.524;9.040;2024-01-30T13:36:39;9.20;83.20
77865;DHT22;67061;48.524;9.040;2024-01-30T13:39:06;9.20;83.50
77865;DHT22;67061;48.524;9.040;2024-01-30T13:41:36;9.20;83.80
77865;DHT22;67061;48.524;9.040;2024-01-30T13:44:03;9.30;84.60
77865;DHT22;67061;48.524;9.040;2024-01-30T13:46:30;9.40;82.60
77865;DHT22;67061;48.524;9.040;2024-01-30T13:48:59;9.40;82.50
77865;DHT22;67061;48.524;9.040;2024-01-30T13:51:26;9.40;82.90
77865;DHT22;67061;48.524;9.040;2024-01-30T13:53:53;9.40;82.80
77865;DHT22;67061;48.524;9.040;2024-01-30T13:56:20;9.40;81.90
77865;DHT22;67061;48.524;9.040;2024-01-30T13:58:48;9.40;82.40
77865;DHT22;67061;48.524;9.040;2024-01-30T14:01:15;9.40;82.20
77865;DHT22;67061;48.524;9.040;2024-01-30T14:03:42;9.40;83.60
77865;DHT22;67061;48.524;9.040;2024-01-30T14:06:11;9.40;83.20
77865;DHT22;67061;48.524;9.040;2024-01-30T14:08:38;9.40;84.00
77865;DHT22;67061;48.524;9.040;2024-01-30T14:11:05;9.40;83.50
77865;DHT22;67061;48.524;9.040;2024-01-30T14:13:32;9.50;83.80
77865;DHT22;67061;48.524;9.040;2024-01-30T14:15:59;9.60;84.30
77865;DHT22;67061;48.524;9.040;2024-01-30T14:18:26;9.60;83.10
77865;DHT22;67061;48.524;9.040;2024-01-30T14:20:53;9.70;83.70
77865;DHT22;67061;48.524;9.040;2024-01-30T14:23:21;9.60;83.00
77865;DHT22;67061;48.524;9.040;2024-01-30T14:25:48;9.70;81.70
77865;DHT22;67061;48.524;9.040;2024-01-30T14:28:17;9.70;82.70
77865;DHT22;67061;48.524;9.040;2024-01-30T14:30:44;9.60;81.80
77865;DHT22;67061;48.524;9.040;2024-01-30T14:33:11;9.70;83.10
77865;DHT22;67061;48.524;9.040;2024-01-30T14:35:38;9.70;81.50
77865;DHT22;67061;48.524;9.040;2024-01-30T14:38:05;9.70;82.60
77865;DHT22;67061;48.524;9.040;2024-01-30T14:40:34;9.70;82.30
77865;DHT22;67061;48.524;9.040;2024-01-30T14:43:01;9.70;83.50
77865;DHT22;67061;48.524;9.040;2024-01-30T14:45:29;9.70;83.50
77865;DHT22;67061;48.524;9.040;2024-01-30T14:47:57;9.70;83.00
77865;DHT22;67061;48.524;9.040;2024-01-30T14:50:25;9.60;84.10
77865;DHT22;67061;48.524;9.040;2024-01-30T14:52:52;9.50;86.30
77865;DHT22;67061;48.524;9.040;2024-01-30T14:55:19;9.50;86.30
77865;DHT22;67061;48.524;9.040;2024-01-30T14:57:47;9.40;86.60
77865;DHT22;67061;48.524;9.040;2024-01-30T15:00:15;9.20;86.70
77865;DHT22;67061;48.524;9.040;2024-01-30T15:02:42;9.10;87.00
77865;DHT22;67061;48.524;9.040;2024-01-30T15:05:09;9.00;88.20
77865;DHT22;67061;48.524;9.040;2024-01-30T15:07:37;8.90;89.60
77865;DHT22;67061;48.524;9.040;2024-01-30T15:10:04;8.80;90.00
77865;DHT22;67061;48.524;9.040;2024-01-30T15:12:32;8.60;90.70
77865;DHT22;67061;48.524;9.040;2024-01-30T15:15:00;8.60;91.40
77865;DHT22;67061;48.524;9.040;2024-01-30T15:17:27;8.50;91.80
77865;DHT22;67061;48.524;9.040;2024-01-30T15:19:54;8.40;92.60
77865;DHT22;67061;48.524;9.040;2024-01-30T15:22:21;8.30;92.80
77865;DHT22;67061;48.524;9.040;2024-01-30T15:24:48;8.20;93.60
77865;DHT22;67061;48.524;9.040;2024-01-30T15:27:15;8.10;94.20
77865;DHT22;67061;48.524;9.040;2024-01-30T15:29:41;8.00;95.10
77865;DHT22;67061;48.524;9.040;2024-01-30T15:32:10;8.00;95.40
77865;DHT22;67061;48.524;9.040;2024-01-30T15:34:36;7.90;95.50
77865;DHT22;67061;48.524;9.040;2024-01-30T15:37:04;7.80;96.20
77865;DHT22;67061;48.524;9.040;2024-01-30T15:39:31;7.70;97.00